Terminal Aerodrome Forecast
Issued by NWS

Current Version | Previous Version | Text Only | Print | Product List | Glossary On
Versions: 1 2 3 4 5 6 7 8 9 10 11 12 13 14
000
FTUS46 KLOX 301151
TAFWJF
TAF
KWJF 301151Z 3012/0112 27015G22KT P6SM SCT250
     FM301700 34018G28KT P6SM SCT060 BKN120
     FM302100 01015KT P6SM VCTS SCT030CB BKN060
     FM010100 28018G25KT P6SM SCT060 SCT120
     FM010500 27010KT P6SM SCT080 SCT120=

USA.gov is the U.S. government's official web portal to all federal, state and local government web resources and services.